createdAt,value
2022-09-30T00:00:43.292Z,100742.19
2022-09-30T00:03:05.101Z,100737.34
2022-09-30T00:05:27.043Z,100747.81
2022-09-30T00:07:48.769Z,100741.81
2022-09-30T00:10:10.812Z,100740.22
2022-09-30T00:12:32.726Z,100747.94
2022-09-30T00:14:54.606Z,100743.59
2022-09-30T00:17:16.409Z,100747.78
2022-09-30T00:19:38.376Z,100743.72
2022-09-30T00:22:00.135Z,100755.81
2022-09-30T00:24:22.243Z,100758.03
2022-09-30T00:26:44.000Z,100758.88
2022-09-30T00:29:07.453Z,100757.25
2022-09-30T00:31:34.014Z,100759.47
2022-09-30T00:34:08.808Z,100757.38
2022-09-30T00:36:30.839Z,100756.06
2022-09-30T00:38:52.682Z,100751.22
2022-09-30T00:41:14.443Z,100751.84
2022-09-30T00:43:51.375Z,100757.94
2022-09-30T00:46:28.643Z,100763.25
2022-09-30T00:48:54.293Z,100758.06
2022-09-30T00:51:16.525Z,100755.31
2022-09-30T00:53:54.974Z,100745.50
2022-09-30T00:56:32.815Z,100747.44
2022-09-30T00:59:10.393Z,100749.66
2022-09-30T01:01:33.148Z,100754.66
2022-09-30T01:04:02.205Z,100758.00
2022-09-30T01:06:24.773Z,100763.78
2022-09-30T01:08:46.908Z,100766.53
2022-09-30T01:11:08.681Z,100766.53
2022-09-30T01:13:33.727Z,100758.31
2022-09-30T01:16:17.921Z,100757.81
2022-09-30T01:18:51.554Z,100763.13
2022-09-30T01:22:15.805Z,100757.94
2022-09-30T01:25:15.622Z,100769.00
2022-09-30T01:27:40.375Z,100764.16
2022-09-30T01:30:32.002Z,100766.91
2022-09-30T01:33:35.326Z,100757.38
2022-09-30T01:36:18.685Z,100752.81
2022-09-30T01:39:01.715Z,100757.81
2022-09-30T01:41:56.219Z,100766.63
2022-09-30T01:44:30.588Z,100763.69
2022-09-30T01:47:26.516Z,100767.06
2022-09-30T01:50:05.616Z,100760.25
2022-09-30T01:53:12.527Z,100752.34
2022-09-30T01:56:11.567Z,100749.44
2022-09-30T01:58:49.966Z,100749.22
2022-09-30T02:01:27.899Z,100749.56
2022-09-30T02:03:57.494Z,100751.78
2022-09-30T02:06:26.972Z,100755.31
2022-09-30T02:09:03.791Z,100758.34
2022-09-30T02:11:30.522Z,100758.97
2022-09-30T02:14:36.974Z,100759.78
2022-09-30T02:17:19.810Z,100761.53
2022-09-30T02:20:00.199Z,100753.31
2022-09-30T02:22:30.021Z,100760.69
2022-09-30T02:25:01.015Z,100755.72
2022-09-30T02:27:32.150Z,100754.94
2022-09-30T02:29:59.319Z,100758.47
2022-09-30T02:32:39.993Z,100757.97
2022-09-30T02:35:23.471Z,100760.22
2022-09-30T02:37:54.018Z,100758.91
2022-09-30T02:40:40.791Z,100763.56
2022-09-30T02:43:05.445Z,100765.47
2022-09-30T02:45:34.467Z,100761.44
2022-09-30T02:49:07.594Z,100766.63
2022-09-30T02:51:42.508Z,100760.13
2022-09-30T02:54:31.906Z,100753.97
2022-09-30T02:57:19.089Z,100763.09
2022-09-30T02:59:41.915Z,100759.84
2022-09-30T03:02:03.988Z,100759.66
2022-09-30T03:04:30.779Z,100753.97
2022-09-30T03:06:52.974Z,100750.44
2022-09-30T03:09:15.597Z,100755.91
2022-09-30T03:11:38.385Z,100761.66
2022-09-30T03:14:09.687Z,100768.53
2022-09-30T03:17:11.977Z,100771.09
2022-09-30T03:19:58.065Z,100766.50
2022-09-30T03:22:55.866Z,100769.84
2022-09-30T03:25:32.258Z,100775.09
2022-09-30T03:28:24.413Z,100785.84
2022-09-30T03:31:03.981Z,100788.47
2022-09-30T03:33:43.853Z,100788.56
2022-09-30T03:36:24.844Z,100801.41
2022-09-30T03:39:28.683Z,100802.75
2022-09-30T03:42:04.855Z,100806.00
2022-09-30T03:44:45.504Z,100803.72
2022-09-30T03:47:13.880Z,100802.66
2022-09-30T03:50:00.008Z,100799.63
2022-09-30T03:52:26.219Z,100805.66
2022-09-30T03:55:00.558Z,100803.53
2022-09-30T03:57:22.527Z,100801.72
2022-09-30T03:59:44.432Z,100803.13
2022-09-30T04:02:08.221Z,100804.16
2022-09-30T04:04:30.105Z,100797.03
2022-09-30T04:06:51.958Z,100795.63
2022-09-30T04:09:14.041Z,100797.56
2022-09-30T04:11:36.011Z,100805.75
2022-09-30T04:13:57.773Z,100818.91
2022-09-30T04:16:19.803Z,100828.84
2022-09-30T04:18:42.345Z,100833.00
2022-09-30T04:21:10.528Z,100837.34
2022-09-30T04:23:36.410Z,100838.13
2022-09-30T04:25:58.290Z,100841.91
2022-09-30T04:28:20.007Z,100858.50
2022-09-30T04:30:41.752Z,100860.16
2022-09-30T04:33:03.562Z,100849.50
2022-09-30T04:35:26.528Z,100859.63
2022-09-30T04:37:48.377Z,100856.09
2022-09-30T04:40:12.177Z,100861.56
2022-09-30T04:42:33.910Z,100858.31
2022-09-30T04:44:55.806Z,100868.94
2022-09-30T04:47:17.535Z,100856.38
2022-09-30T04:49:39.270Z,100855.56
2022-09-30T04:52:01.277Z,100862.16
2022-09-30T04:54:23.198Z,100869.53
2022-09-30T04:56:45.067Z,100874.19
2022-09-30T04:59:07.261Z,100870.66
2022-09-30T05:01:29.210Z,100868.22
2022-09-30T05:03:51.012Z,100869.31
2022-09-30T05:06:14.193Z,100882.47
2022-09-30T05:08:37.549Z,100889.63
2022-09-30T05:11:05.704Z,100894.59
2022-09-30T05:13:35.133Z,100901.78
2022-09-30T05:15:57.029Z,100896.41
2022-09-30T05:18:20.394Z,100889.28
2022-09-30T05:20:42.839Z,100895.88
2022-09-30T05:23:05.863Z,100890.69
2022-09-30T05:25:28.237Z,100892.63
2022-09-30T05:27:51.320Z,100888.56
2022-09-30T05:30:13.027Z,100900.91
2022-09-30T05:32:34.900Z,100903.13
2022-09-30T05:34:56.646Z,100897.13
2022-09-30T05:37:18.521Z,100898.25
2022-09-30T05:39:40.481Z,100895.53
2022-09-30T05:42:02.351Z,100900.19
2022-09-30T05:44:24.283Z,100900.47
2022-09-30T05:46:46.052Z,100902.38
2022-09-30T05:49:09.252Z,100907.06
2022-09-30T05:51:31.438Z,100910.59
2022-09-30T05:53:53.497Z,100923.94
2022-09-30T05:56:15.507Z,100923.94
2022-09-30T05:58:39.099Z,100924.75
2022-09-30T06:01:13.049Z,100930.16
2022-09-30T06:03:36.082Z,100938.03
2022-09-30T06:05:58.370Z,100931.69
2022-09-30T06:08:20.142Z,100939.50
2022-09-30T06:10:44.467Z,100942.97
2022-09-30T06:13:06.270Z,100945.63
2022-09-30T06:15:28.132Z,100948.88
2022-09-30T06:17:54.734Z,100957.31
2022-09-30T06:20:17.130Z,100955.59
2022-09-30T06:22:38.942Z,100955.50
2022-09-30T06:25:00.757Z,100956.25
2022-09-30T06:27:22.723Z,100960.50
2022-09-30T06:29:44.483Z,100966.41
2022-09-30T06:32:06.844Z,100962.22
2022-09-30T06:34:28.841Z,100970.84
2022-09-30T06:36:50.633Z,100963.06
2022-09-30T06:39:13.875Z,100967.88
2022-09-30T06:41:43.539Z,100966.25
2022-09-30T06:44:07.770Z,100966.50
2022-09-30T06:46:31.237Z,100960.72
2022-09-30T06:49:09.934Z,100967.38
2022-09-30T06:51:34.262Z,100959.19
2022-09-30T06:53:56.558Z,100955.91
2022-09-30T06:56:19.267Z,100959.88
2022-09-30T06:58:42.093Z,100966.34
2022-09-30T07:01:06.799Z,100964.69
2022-09-30T07:03:34.440Z,100956.97
2022-09-30T07:05:59.864Z,100960.41
2022-09-30T07:08:21.651Z,100959.97
2022-09-30T07:10:47.136Z,100964.38
2022-09-30T07:13:10.806Z,100965.25
2022-09-30T07:15:32.583Z,100957.06
2022-09-30T07:17:58.608Z,100961.97
2022-09-30T07:20:20.565Z,100962.22
2022-09-30T07:22:42.391Z,100967.59
2022-09-30T07:25:05.256Z,100960.88
2022-09-30T07:27:29.221Z,100966.25
2022-09-30T07:30:08.426Z,100957.88
2022-09-30T07:32:32.317Z,100961.28
2022-09-30T07:34:54.118Z,100960.84
2022-09-30T07:37:18.829Z,100965.06
2022-09-30T07:39:43.007Z,100967.00
2022-09-30T07:42:05.779Z,100962.94
2022-09-30T07:44:29.382Z,100963.88
2022-09-30T07:46:51.156Z,100958.53
2022-09-30T07:49:25.649Z,100957.84
2022-09-30T07:51:47.659Z,100962.38
2022-09-30T07:54:25.033Z,100963.78
2022-09-30T07:59:31.722Z,100958.34
2022-09-30T08:01:54.067Z,100968.19
2022-09-30T08:04:19.332Z,100964.06
2022-09-30T08:06:48.594Z,100968.38
2022-09-30T08:09:10.619Z,100956.97
2022-09-30T08:11:37.840Z,100959.47
2022-09-30T08:13:59.695Z,100966.34
2022-09-30T08:16:23.744Z,100960.91
2022-09-30T08:18:46.028Z,100962.13
2022-09-30T08:21:07.936Z,100964.94
2022-09-30T08:23:29.832Z,100958.34
2022-09-30T08:25:51.787Z,100956.78
2022-09-30T08:28:14.459Z,100957.13
2022-09-30T08:30:38.007Z,100957.53
2022-09-30T08:32:59.906Z,100961.81
2022-09-30T08:35:21.730Z,100962.50
2022-09-30T08:37:43.535Z,100958.69
2022-09-30T08:40:06.069Z,100961.38
2022-09-30T08:43:01.839Z,100964.63
2022-09-30T08:45:26.583Z,100963.78
2022-09-30T08:48:41.962Z,100960.34
2022-09-30T08:51:27.691Z,100959.63
2022-09-30T08:53:50.962Z,100958.59
2022-09-30T08:56:24.421Z,100963.75
2022-09-30T08:58:50.293Z,100957.72
2022-09-30T09:01:26.782Z,100969.47
2022-09-30T09:03:48.721Z,100967.34
2022-09-30T09:06:30.159Z,100972.41
2022-09-30T09:09:37.698Z,100967.88
2022-09-30T09:12:22.657Z,100959.06
2022-09-30T09:15:03.031Z,100959.31
2022-09-30T09:18:23.077Z,100953.72
2022-09-30T09:21:03.582Z,100949.81
2022-09-30T09:23:28.216Z,100954.59
2022-09-30T09:25:55.558Z,100947.34
2022-09-30T09:28:50.395Z,100962.63
2022-09-30T09:31:20.378Z,100955.19
2022-09-30T09:33:43.387Z,100959.28
2022-09-30T09:36:35.994Z,100956.41
2022-09-30T09:39:23.029Z,100957.47
2022-09-30T09:42:08.358Z,100955.66
2022-09-30T09:44:49.896Z,100961.75
2022-09-30T09:47:16.948Z,100947.50
2022-09-30T09:49:43.958Z,100962.72
2022-09-30T09:52:31.412Z,100969.22
2022-09-30T09:54:56.790Z,100979.75
2022-09-30T09:57:32.395Z,100962.50
2022-09-30T10:00:31.169Z,100969.13
2022-09-30T10:03:23.203Z,100975.59
2022-09-30T10:05:59.681Z,100964.59
2022-09-30T10:08:23.488Z,100963.13
2022-09-30T10:10:50.479Z,100965.16
2022-09-30T10:13:27.459Z,100964.88
2022-09-30T10:15:54.591Z,100965.09
2022-09-30T10:18:27.623Z,100956.19
2022-09-30T10:20:58.225Z,100948.94
2022-09-30T10:23:27.807Z,100955.88
2022-09-30T10:26:16.357Z,100959.13
2022-09-30T10:28:46.083Z,100956.41
2022-09-30T10:31:18.096Z,100962.09
2022-09-30T10:33:46.750Z,100954.63
2022-09-30T10:36:15.884Z,100954.66
2022-09-30T10:39:04.169Z,100952.75
2022-09-30T10:41:33.065Z,100950.47
2022-09-30T10:44:01.191Z,100956.03
2022-09-30T10:46:38.512Z,100955.00
2022-09-30T10:49:08.106Z,100956.66
2022-09-30T10:51:34.100Z,100951.59
2022-09-30T10:53:57.324Z,100959.66
2022-09-30T10:56:45.620Z,100954.56
2022-09-30T10:59:22.721Z,100960.94
2022-09-30T11:01:57.953Z,100966.13
2022-09-30T11:04:32.418Z,100962.97
2022-09-30T11:07:15.541Z,100965.38
2022-09-30T11:09:55.178Z,100960.69
2022-09-30T11:12:24.485Z,100956.81
2022-09-30T11:15:03.764Z,100958.47
2022-09-30T11:17:38.746Z,100957.38
2022-09-30T11:20:23.744Z,100944.97
2022-09-30T11:22:53.643Z,100951.50
2022-09-30T11:25:24.963Z,100955.03
2022-09-30T11:28:09.649Z,100948.78
2022-09-30T11:30:56.353Z,100950.38
2022-09-30T11:33:52.540Z,100952.31
2022-09-30T11:36:45.735Z,100942.00
2022-09-30T11:39:29.163Z,100936.97
2022-09-30T11:42:18.778Z,100935.06
2022-09-30T11:44:45.302Z,100934.63
2022-09-30T11:48:00.196Z,100930.81
2022-09-30T11:50:43.047Z,100932.97
2022-09-30T11:53:22.630Z,100928.53
2022-09-30T11:56:20.772Z,100931.91
2022-09-30T11:58:51.650Z,100930.97
2022-09-30T12:01:28.374Z,100929.94
2022-09-30T12:04:41.584Z,100920.97
2022-09-30T12:07:37.573Z,100926.78
2022-09-30T12:10:14.226Z,100919.63
2022-09-30T12:12:36.938Z,100925.44
2022-09-30T12:15:07.559Z,100925.56
2022-09-30T12:17:47.027Z,100925.44
2022-09-30T12:20:33.935Z,100911.00
2022-09-30T12:23:19.762Z,100904.00
2022-09-30T12:25:53.192Z,100898.34
2022-09-30T12:29:10.450Z,100897.47
2022-09-30T12:32:16.736Z,100895.03
2022-09-30T12:35:05.895Z,100887.19
2022-09-30T12:38:00.141Z,100879.75
2022-09-30T12:41:11.956Z,100876.72
2022-09-30T12:44:18.343Z,100873.69
2022-09-30T12:47:52.846Z,100892.16
2022-09-30T12:50:21.529Z,100888.13
2022-09-30T12:52:44.476Z,100882.31
2022-09-30T12:55:25.870Z,100873.34
2022-09-30T12:57:51.328Z,100874.41
2022-09-30T13:00:27.511Z,100871.78
2022-09-30T13:02:58.991Z,100868.75
2022-09-30T13:05:26.779Z,100867.91
2022-09-30T13:08:04.194Z,100868.13
2022-09-30T13:10:32.239Z,100873.09
2022-09-30T13:13:23.796Z,100864.84
2022-09-30T13:15:48.964Z,100864.81
2022-09-30T13:18:19.896Z,100859.31
2022-09-30T13:21:15.778Z,100854.63
2022-09-30T13:23:56.019Z,100855.91
2022-09-30T13:26:27.395Z,100847.59
2022-09-30T13:28:52.881Z,100852.88
2022-09-30T13:31:20.207Z,100853.78
2022-09-30T13:34:02.237Z,100842.31
2022-09-30T13:37:02.230Z,100848.16
2022-09-30T13:39:35.486Z,100847.69
2022-09-30T13:42:12.610Z,100834.56
2022-09-30T13:44:57.578Z,100838.19
2022-09-30T13:47:34.250Z,100834.72
2022-09-30T13:50:26.445Z,100826.75
2022-09-30T13:52:57.774Z,100827.50
2022-09-30T13:55:30.369Z,100824.66
2022-09-30T13:58:34.896Z,100815.06
2022-09-30T14:01:21.550Z,100825.38
2022-09-30T14:04:16.141Z,100812.59
2022-09-30T14:07:01.981Z,100814.63
2022-09-30T14:09:26.725Z,100806.56
2022-09-30T14:13:01.280Z,100806.47
2022-09-30T14:15:22.972Z,100807.22
2022-09-30T14:17:57.283Z,100800.84
2022-09-30T14:21:21.147Z,100795.75
2022-09-30T14:23:44.358Z,100793.06
2022-09-30T14:27:11.422Z,100796.28
2022-09-30T14:30:00.011Z,100790.59
2022-09-30T14:32:31.226Z,100785.34
2022-09-30T14:34:53.776Z,100790.47
2022-09-30T14:37:30.962Z,100784.06
2022-09-30T14:39:53.306Z,100797.16
2022-09-30T14:42:30.260Z,100788.75
2022-09-30T14:44:55.443Z,100793.50
2022-09-30T14:47:19.369Z,100790.97
2022-09-30T14:49:41.609Z,100795.75
2022-09-30T14:52:04.969Z,100792.53
2022-09-30T14:54:31.099Z,100789.06
2022-09-30T14:56:56.225Z,100786.41
2022-09-30T14:59:31.757Z,100787.28
2022-09-30T15:02:02.469Z,100772.94
2022-09-30T15:04:31.348Z,100776.50
2022-09-30T15:06:54.530Z,100777.66
2022-09-30T15:09:28.471Z,100777.22
2022-09-30T15:11:50.706Z,100771.97
2022-09-30T15:14:20.767Z,100778.25
2022-09-30T15:16:58.046Z,100774.25
2022-09-30T15:19:30.087Z,100773.44
2022-09-30T15:21:55.584Z,100772.56
2022-09-30T15:24:20.263Z,100772.88
2022-09-30T15:26:43.349Z,100780.38
2022-09-30T15:29:05.610Z,100784.31
2022-09-30T15:31:30.714Z,100773.19
2022-09-30T15:34:25.746Z,100789.59
2022-09-30T15:36:56.633Z,100778.47
2022-09-30T15:39:24.328Z,100785.69
2022-09-30T15:41:47.480Z,100781.31
2022-09-30T15:44:37.333Z,100787.69
2022-09-30T15:47:04.942Z,100791.25
2022-09-30T15:49:37.784Z,100782.91
2022-09-30T15:52:39.679Z,100784.09
2022-09-30T15:55:02.414Z,100782.84
2022-09-30T15:57:47.141Z,100784.03
2022-09-30T16:00:38.394Z,100782.84
2022-09-30T16:03:31.032Z,100785.63
2022-09-30T16:06:04.299Z,100790.38
2022-09-30T16:08:31.592Z,100787.47
2022-09-30T16:10:57.222Z,100793.28
2022-09-30T16:13:30.562Z,100793.59
2022-09-30T16:15:55.049Z,100791.09
2022-09-30T16:18:23.832Z,100792.16
2022-09-30T16:21:01.858Z,100796.81
2022-09-30T16:23:38.707Z,100787.59
2022-09-30T16:26:15.718Z,100787.50
2022-09-30T16:28:37.493Z,100778.97
2022-09-30T16:30:59.399Z,100783.94
2022-09-30T16:33:21.275Z,100784.69
2022-09-30T16:35:44.994Z,100790.13
2022-09-30T16:38:10.360Z,100786.41
2022-09-30T16:40:39.192Z,100784.34
2022-09-30T16:43:05.521Z,100779.03
2022-09-30T16:45:29.526Z,100772.94
2022-09-30T16:47:51.857Z,100779.19
2022-09-30T16:50:19.627Z,100780.66
2022-09-30T16:52:41.618Z,100773.41
2022-09-30T16:55:03.609Z,100776.84
2022-09-30T16:57:25.388Z,100775.56
2022-09-30T16:59:47.368Z,100772.63
2022-09-30T17:02:14.916Z,100771.31
2022-09-30T17:04:38.677Z,100773.63
2022-09-30T17:07:01.652Z,100768.28
2022-09-30T17:09:23.538Z,100780.06
2022-09-30T17:11:45.602Z,100770.00
2022-09-30T17:14:07.647Z,100773.06
2022-09-30T17:16:30.176Z,100773.72
2022-09-30T17:18:53.410Z,100766.50
2022-09-30T17:21:25.230Z,100768.78
2022-09-30T17:23:47.435Z,100769.88
2022-09-30T17:26:09.434Z,100760.69
2022-09-30T17:28:34.689Z,100757.81
2022-09-30T17:30:56.938Z,100760.09
2022-09-30T17:33:19.772Z,100760.00
2022-09-30T17:35:41.732Z,100761.94
2022-09-30T17:38:08.683Z,100761.03
2022-09-30T17:40:48.958Z,100762.94
2022-09-30T17:43:11.965Z,100765.53
2022-09-30T17:45:40.281Z,100759.84
2022-09-30T17:48:02.827Z,100756.91
2022-09-30T17:50:24.680Z,100761.91
2022-09-30T17:52:46.507Z,100758.63
2022-09-30T17:55:08.681Z,100762.03
2022-09-30T17:57:39.958Z,100750.78
2022-09-30T18:00:01.827Z,100754.63
2022-09-30T18:02:25.283Z,100741.06
2022-09-30T18:04:47.479Z,100746.88
2022-09-30T18:07:10.193Z,100748.75
2022-09-30T18:09:33.052Z,100745.91
2022-09-30T18:11:54.803Z,100750.94
2022-09-30T18:14:17.565Z,100750.38
2022-09-30T18:16:40.404Z,100753.44
2022-09-30T18:19:05.958Z,100756.47
2022-09-30T18:21:28.925Z,100757.53
2022-09-30T18:23:52.368Z,100783.19
2022-09-30T18:26:14.201Z,100778.38
2022-09-30T18:28:37.606Z,100783.00
2022-09-30T18:31:06.214Z,100773.44
2022-09-30T18:33:28.377Z,100760.66
2022-09-30T18:35:51.132Z,100755.41
2022-09-30T18:38:14.881Z,100755.66
2022-09-30T18:40:37.953Z,100746.81
2022-09-30T18:43:04.365Z,100739.22
2022-09-30T18:45:28.780Z,100750.19
2022-09-30T18:47:55.994Z,100745.00
2022-09-30T18:50:18.004Z,100739.84
2022-09-30T18:52:40.683Z,100730.38
2022-09-30T18:55:02.864Z,100747.44
2022-09-30T18:57:24.606Z,100738.69
2022-09-30T18:59:46.872Z,100733.47
2022-09-30T19:02:14.791Z,100731.88
2022-09-30T19:04:36.716Z,100717.25
2022-09-30T19:06:58.932Z,100723.59
2022-09-30T19:09:20.753Z,100723.94
2022-09-30T19:11:44.837Z,100713.56
2022-09-30T19:14:06.973Z,100708.38
2022-09-30T19:16:35.333Z,100706.34
2022-09-30T19:19:04.483Z,100703.91
2022-09-30T19:21:26.286Z,100705.41
2022-09-30T19:23:48.879Z,100695.06
2022-09-30T19:26:10.849Z,100698.19
2022-09-30T19:28:38.266Z,100692.28
2022-09-30T19:31:17.088Z,100689.19
2022-09-30T19:33:46.487Z,100677.31
2022-09-30T19:36:15.710Z,100675.69
2022-09-30T19:38:40.640Z,100672.13
2022-09-30T19:41:02.472Z,100682.03
2022-09-30T19:43:25.607Z,100668.63
2022-09-30T19:45:59.757Z,100676.59
2022-09-30T19:48:21.660Z,100678.56
2022-09-30T19:50:43.744Z,100675.41
2022-09-30T19:53:05.472Z,100675.91
2022-09-30T19:55:27.255Z,100677.16
2022-09-30T19:57:49.241Z,100674.84
2022-09-30T20:00:14.845Z,100668.97
2022-09-30T20:02:37.042Z,100659.94
2022-09-30T20:05:00.462Z,100656.81
2022-09-30T20:07:22.370Z,100644.59
2022-09-30T20:09:44.124Z,100637.44
2022-09-30T20:12:07.158Z,100634.31
2022-09-30T20:14:47.527Z,100632.78
2022-09-30T20:17:09.306Z,100624.16
2022-09-30T20:19:31.085Z,100617.09
2022-09-30T20:21:54.494Z,100613.16
2022-09-30T20:24:18.477Z,100602.91
2022-09-30T20:26:41.782Z,100593.41
2022-09-30T20:29:04.129Z,100601.38
2022-09-30T20:31:28.031Z,100587.16
2022-09-30T20:33:58.001Z,100587.16
2022-09-30T20:36:20.004Z,100582.50
2022-09-30T20:38:41.815Z,100582.59
2022-09-30T20:41:04.426Z,100581.50
2022-09-30T20:43:30.091Z,100578.75
2022-09-30T20:46:00.384Z,100570.44
2022-09-30T20:48:22.243Z,100573.19
2022-09-30T20:50:45.615Z,100570.81
2022-09-30T20:53:12.433Z,100569.28
2022-09-30T20:55:38.014Z,100557.38
2022-09-30T20:57:59.842Z,100549.19
2022-09-30T21:00:22.605Z,100551.94
2022-09-30T21:02:44.364Z,100544.09
2022-09-30T21:05:07.771Z,100548.44
2022-09-30T21:07:29.526Z,100531.84
2022-09-30T21:09:51.493Z,100536.56
2022-09-30T21:12:14.611Z,100531.84
2022-09-30T21:14:36.480Z,100530.69
2022-09-30T21:16:58.255Z,100528.72
2022-09-30T21:19:20.485Z,100531.03
2022-09-30T21:21:42.260Z,100529.44
2022-09-30T21:24:04.250Z,100527.47
2022-09-30T21:26:27.215Z,100521.94
2022-09-30T21:28:50.720Z,100523.91
2022-09-30T21:31:21.453Z,100524.69
2022-09-30T21:33:44.784Z,100526.28
2022-09-30T21:36:06.996Z,100519.63
2022-09-30T21:38:29.911Z,100522.38
2022-09-30T21:41:00.326Z,100518.78
2022-09-30T21:43:22.070Z,100515.59
2022-09-30T21:45:44.012Z,100514.78
2022-09-30T21:48:07.388Z,100523.47
2022-09-30T21:50:29.235Z,100514.78
2022-09-30T21:52:51.044Z,100510.06
2022-09-30T21:55:13.770Z,100512.84
2022-09-30T21:57:35.690Z,100512.84
2022-09-30T21:59:57.564Z,100507.66
2022-09-30T22:02:20.127Z,100508.00
2022-09-30T22:04:42.343Z,100509.63
2022-09-30T22:07:05.165Z,100505.69
2022-09-30T22:09:26.994Z,100505.31
2022-09-30T22:11:49.570Z,100499.78
2022-09-30T22:14:11.450Z,100501.81
2022-09-30T22:16:38.091Z,100507.00
2022-09-30T22:19:04.810Z,100493.50
2022-09-30T22:21:33.583Z,100499.06
2022-09-30T22:23:55.585Z,100490.31
2022-09-30T22:26:22.353Z,100495.03
2022-09-30T22:28:54.617Z,100493.72
2022-09-30T22:31:19.520Z,100488.47
2022-09-30T22:33:59.922Z,100486.78
2022-09-30T22:36:40.105Z,100487.00
2022-09-30T22:39:02.040Z,100477.81
2022-09-30T22:41:24.128Z,100478.44
2022-09-30T22:43:46.260Z,100470.00
2022-09-30T22:46:08.988Z,100469.88
2022-09-30T22:48:32.039Z,100460.69
2022-09-30T22:50:53.848Z,100455.81
2022-09-30T22:53:15.747Z,100456.53
2022-09-30T22:55:38.065Z,100446.97
2022-09-30T22:57:59.814Z,100442.09
2022-09-30T23:00:21.631Z,100436.88
2022-09-30T23:02:43.763Z,100441.13
2022-09-30T23:05:06.548Z,100429.19
2022-09-30T23:07:29.698Z,100422.31
2022-09-30T23:09:51.468Z,100409.16
2022-09-30T23:12:14.271Z,100412.16
2022-09-30T23:14:36.123Z,100394.34
2022-09-30T23:16:58.057Z,100392.28
2022-09-30T23:19:20.919Z,100385.53
2022-09-30T23:21:43.487Z,100357.81
2022-09-30T23:24:05.945Z,100355.75
2022-09-30T23:26:30.063Z,100350.16
2022-09-30T23:29:04.413Z,100342.13
2022-09-30T23:31:27.071Z,100347.56
2022-09-30T23:33:53.147Z,100334.47
2022-09-30T23:36:21.915Z,100328.06
2022-09-30T23:38:44.503Z,100326.00
2022-09-30T23:41:07.363Z,100329.16
2022-09-30T23:43:32.403Z,100320.88
2022-09-30T23:45:54.444Z,100304.97
2022-09-30T23:48:16.381Z,100300.63
2022-09-30T23:50:40.169Z,100298.22
2022-09-30T23:53:01.923Z,100308.47
2022-09-30T23:55:23.862Z,100311.56
2022-09-30T23:57:47.028Z,100308.41
